Time;durP1;ratioP1;P1;durP2;ratioP2;P2;SDS_P1;SDS_P2;PMS_P1;PMS_P2;Temp;Humidity;BMP_temperature;BMP_pressure;BME280_temperature;BME280_humidity;BME280_pressure;Samples;Min_cycle;Max_cycle;Signal;HPM_P1;HPM_P2
2021/04/10 00:01:22;;;;;;;15.30;6.65;;;;;;;;;;5080528;28;20069;-89
2021/04/10 00:03:48;;;;;;;14.90;6.13;;;;;;;;;;5080100;28;20032;-88
2021/04/10 00:06:15;;;;;;;15.45;7.15;;;;;;;;;;5080824;28;20089;-89
2021/04/10 00:08:41;;;;;;;15.48;6.38;;;;;;;;;;5080266;28;20480;-89
2021/04/10 00:11:07;;;;;;;16.48;5.68;;;;;;;;;;5079662;28;20020;-89
2021/04/10 00:13:34;;;;;;;14.70;6.05;;;;;;;;;;5079852;28;20024;-89
2021/04/10 00:16:00;;;;;;;13.38;6.10;;;;;;;;;;5079872;28;20016;-88
2021/04/10 00:18:27;;;;;;;11.95;5.60;;;;;;;;;;5097563;28;20110;-89
2021/04/10 00:20:53;;;;;;;9.13;4.65;;;;;;;;;;5079493;28;20024;-90
2021/04/10 00:23:19;;;;;;;10.52;5.10;;;;;;;;;;5080417;28;20024;-89
2021/04/10 00:25:45;;;;;;;11.65;4.88;;;;;;;;;;5079498;28;20020;-89
2021/04/10 00:28:12;;;;;;;8.57;3.90;;;;;;;;;;5097471;28;20040;-89
2021/04/10 00:30:38;;;;;;;8.93;4.20;;;;;;;;;;5080304;28;20028;-90
2021/04/10 00:33:04;;;;;;;9.30;4.20;;;;;;;;;;5078985;28;20445;-89
2021/04/10 00:35:31;;;;;;;9.73;3.97;;;;;;;;;;5079293;28;20035;-90
2021/04/10 00:37:58;;;;;;;10.48;4.35;;;;;;;;;;5079222;28;20031;-89
2021/04/10 00:40:24;;;;;;;9.13;3.80;;;;;;;;;;5078855;28;20020;-89
2021/04/10 00:42:51;;;;;;;8.38;3.70;;;;;;;;;;5079106;28;20173;-88
2021/04/10 00:45:17;;;;;;;9.05;4.05;;;;;;;;;;5078666;28;20020;-90
2021/04/10 00:47:43;;;;;;;7.35;3.47;;;;;;;;;;5079571;28;20032;-90
2021/04/10 00:50:10;;;;;;;11.18;3.65;;;;;;;;;;5079071;28;20035;-87
2021/04/10 00:52:37;;;;;;;9.40;4.10;;;;;;;;;;5078410;28;20055;-90
2021/04/10 00:55:04;;;;;;;7.30;3.30;;;;;;;;;;5078302;28;20111;-89
2021/04/10 00:57:31;;;;;;;12.40;5.15;;;;;;;;;;5078550;28;20032;-89
2021/04/10 00:59:57;;;;;;;8.63;4.28;;;;;;;;;;5077982;28;20078;-90
2021/04/10 01:02:24;;;;;;;8.82;4.10;;;;;;;;;;5078997;28;20116;-88
2021/04/10 01:04:52;;;;;;;13.73;4.35;;;;;;;;;;5079006;28;20036;-89
2021/04/10 01:07:18;;;;;;;9.13;4.78;;;;;;;;;;5077995;28;20020;-87
2021/04/10 01:09:46;;;;;;;8.80;4.60;;;;;;;;;;5078108;28;20032;-86
2021/04/10 01:12:28;;;;;;;9.18;4.10;;;;;;;;;;5077874;28;20024;-86
2021/04/10 01:15:03;;;;;;;10.18;4.32;;;;;;;;;;5077907;28;20031;-87
2021/04/10 01:17:30;;;;;;;7.55;3.92;;;;;;;;;;5077895;28;20024;-86
2021/04/10 01:20:14;;;;;;;8.05;3.88;;;;;;;;;;5078218;28;20423;-89
2021/04/10 01:22:59;;;;;;;11.45;4.47;;;;;;;;;;5078042;28;20038;-89
2021/04/10 01:25:41;;;;;;;12.13;4.10;;;;;;;;;;5078322;28;20020;-89
2021/04/10 01:28:22;;;;;;;9.98;4.30;;;;;;;;;;5078008;28;20119;-89
2021/04/10 01:30:49;;;;;;;10.48;5.05;;;;;;;;;;5077781;28;20031;-88
2021/04/10 01:33:17;;;;;;;9.35;4.20;;;;;;;;;;5077915;28;20078;-89
2021/04/10 01:35:53;;;;;;;10.15;4.60;;;;;;;;;;5077832;28;20023;-89
2021/04/10 01:38:20;;;;;;;16.70;4.25;;;;;;;;;;5077215;28;20036;-89
2021/04/10 01:40:49;;;;;;;8.30;3.90;;;;;;;;;;5078263;28;20077;-89
2021/04/10 01:43:16;;;;;;;8.30;4.05;;;;;;;;;;5078356;28;20043;-89
2021/04/10 01:45:42;;;;;;;10.95;4.07;;;;;;;;;;5077697;28;20485;-89
2021/04/10 01:48:10;;;;;;;9.50;3.85;;;;;;;;;;5077555;28;20096;-89
2021/04/10 01:50:37;;;;;;;7.93;3.97;;;;;;;;;;5077271;28;20031;-89
2021/04/10 01:53:05;;;;;;;10.30;3.75;;;;;;;;;;5078234;28;20076;-88
2021/04/10 01:55:31;;;;;;;9.55;4.28;;;;;;;;;;5077646;28;20117;-89
2021/04/10 01:57:57;;;;;;;12.07;4.53;;;;;;;;;;5077342;28;20024;-89
2021/04/10 02:00:25;;;;;;;8.20;3.63;;;;;;;;;;5077008;28;20075;-89
2021/04/10 02:02:52;;;;;;;8.00;3.75;;;;;;;;;;5077374;28;20051;-89
2021/04/10 02:05:18;;;;;;;13.52;3.78;;;;;;;;;;5077404;28;20468;-89
2021/04/10 02:07:46;;;;;;;10.60;4.07;;;;;;;;;;5078400;28;20092;-89
2021/04/10 02:10:17;;;;;;;7.63;3.58;;;;;;;;;;5090403;28;20051;-89
2021/04/10 02:12:44;;;;;;;9.00;3.78;;;;;;;;;;5087708;28;20028;-88
2021/04/10 02:15:12;;;;;;;9.63;3.67;;;;;;;;;;5077980;28;20043;-89
2021/04/10 02:17:38;;;;;;;8.20;3.40;;;;;;;;;;5078802;28;20060;-88
2021/04/10 02:20:11;;;;;;;9.27;3.08;;;;;;;;;;5077336;28;20062;-89
2021/04/10 02:22:37;;;;;;;9.60;3.63;;;;;;;;;;5078150;28;20024;-90
2021/04/10 02:25:05;;;;;;;7.65;3.10;;;;;;;;;;5077248;28;20024;-89
2021/04/10 02:27:31;;;;;;;7.28;3.03;;;;;;;;;;5077703;28;20032;-89
2021/04/10 02:29:58;;;;;;;6.60;2.97;;;;;;;;;;5076767;28;20072;-89
2021/04/10 02:32:24;;;;;;;10.80;3.00;;;;;;;;;;5076713;28;20031;-88
2021/04/10 02:34:58;;;;;;;11.93;3.33;;;;;;;;;;5076774;28;20389;-88
2021/04/10 02:37:25;;;;;;;6.28;3.15;;;;;;;;;;5077062;28;20020;-88
2021/04/10 02:39:51;;;;;;;7.57;2.65;;;;;;;;;;5076644;28;20035;-88
2021/04/10 02:42:18;;;;;;;5.90;2.85;;;;;;;;;;5076790;28;20026;-88
2021/04/10 02:44:49;;;;;;;5.63;2.78;;;;;;;;;;5077140;28;20085;-89
2021/04/10 02:47:18;;;;;;;7.57;2.92;;;;;;;;;;5076436;28;20024;-88
2021/04/10 02:49:49;;;;;;;6.38;3.00;;;;;;;;;;5077447;28;20028;-88
2021/04/10 02:52:16;;;;;;;10.57;2.95;;;;;;;;;;5083339;28;20031;-89
2021/04/10 02:54:44;;;;;;;4.78;2.70;;;;;;;;;;5084117;28;20030;-89
2021/04/10 02:57:12;;;;;;;7.28;2.58;;;;;;;;;;5083473;28;20424;-89
2021/04/10 02:59:43;;;;;;;5.95;3.05;;;;;;;;;;5111649;28;20059;-89
2021/04/10 03:02:10;;;;;;;6.05;2.20;;;;;;;;;;5104765;28;20471;-88
2021/04/10 03:04:37;;;;;;;5.72;2.80;;;;;;;;;;5103342;28;20028;-88
2021/04/10 03:07:08;;;;;;;8.25;2.50;;;;;;;;;;5103855;28;20047;-89
2021/04/10 03:09:37;;;;;;;5.07;2.70;;;;;;;;;;5103587;28;20032;-88
2021/04/10 03:12:03;;;;;;;7.82;3.17;;;;;;;;;;5104152;28;20031;-87
2021/04/10 03:14:30;;;;;;;5.20;2.72;;;;;;;;;;5103718;28;20104;-88
2021/04/10 03:16:58;;;;;;;4.85;2.80;;;;;;;;;;5103175;28;20031;-89
2021/04/10 03:19:25;;;;;;;7.43;2.70;;;;;;;;;;5104457;28;20023;-88
2021/04/10 03:21:51;;;;;;;8.40;2.95;;;;;;;;;;5103457;28;20027;-88
2021/04/10 03:24:17;;;;;;;6.85;2.97;;;;;;;;;;5103836;28;20376;-88
2021/04/10 03:26:44;;;;;;;9.55;2.40;;;;;;;;;;5103487;28;20107;-89
2021/04/10 03:29:11;;;;;;;5.38;2.47;;;;;;;;;;5122231;28;20036;-89
2021/04/10 03:31:37;;;;;;;11.77;3.17;;;;;;;;;;5103479;28;20091;-89
2021/04/10 03:34:04;;;;;;;6.95;2.90;;;;;;;;;;5121291;28;20098;-88
2021/04/10 03:36:32;;;;;;;8.18;2.83;;;;;;;;;;5103455;28;20117;-88
2021/04/10 03:38:59;;;;;;;5.65;2.38;;;;;;;;;;5103721;28;20087;-89
2021/04/10 03:41:25;;;;;;;3.92;2.17;;;;;;;;;;5104058;28;20027;-88
2021/04/10 03:43:52;;;;;;;6.25;2.53;;;;;;;;;;5103357;28;20032;-89
2021/04/10 03:46:19;;;;;;;10.30;2.63;;;;;;;;;;5102890;28;20015;-88
2021/04/10 03:48:47;;;;;;;5.53;2.10;;;;;;;;;;5103394;28;20112;-89
2021/04/10 03:51:13;;;;;;;8.63;2.70;;;;;;;;;;5103868;28;20026;-88
2021/04/10 03:53:39;;;;;;;6.85;3.20;;;;;;;;;;5103697;28;20032;-88
2021/04/10 03:56:06;;;;;;;5.63;2.92;;;;;;;;;;5103178;28;20015;-89
2021/04/10 03:58:32;;;;;;;8.18;2.50;;;;;;;;;;5102959;28;20118;-87
2021/04/10 04:00:58;;;;;;;5.65;2.83;;;;;;;;;;5103115;28;20026;-89
2021/04/10 04:03:24;;;;;;;5.50;2.88;;;;;;;;;;5099417;28;20419;-89
2021/04/10 04:05:51;;;;;;;5.28;2.53;;;;;;;;;;5100476;28;20027;-89
2021/04/10 04:08:17;;;;;;;6.22;2.40;;;;;;;;;;5101073;28;20036;-88
2021/04/10 04:10:43;;;;;;;8.07;3.30;;;;;;;;;;5099650;28;20024;-88
2021/04/10 04:13:09;;;;;;;5.55;2.47;;;;;;;;;;5099888;28;20070;-89
2021/04/10 04:15:35;;;;;;;12.55;3.53;;;;;;;;;;5118420;28;20468;-89
2021/04/10 04:18:02;;;;;;;10.07;3.40;;;;;;;;;;5099513;28;20020;-89
2021/04/10 04:20:28;;;;;;;6.63;2.70;;;;;;;;;;5099529;28;20460;-89
2021/04/10 04:22:54;;;;;;;6.10;2.97;;;;;;;;;;5100243;28;20051;-88
2021/04/10 04:25:21;;;;;;;6.60;2.85;;;;;;;;;;5100032;28;20028;-89
2021/04/10 04:27:47;;;;;;;5.53;2.40;;;;;;;;;;5099288;28;20023;-88
2021/04/10 04:30:14;;;;;;;4.57;2.72;;;;;;;;;;5099393;28;20076;-88
2021/04/10 04:32:40;;;;;;;6.85;2.88;;;;;;;;;;5099731;28;20452;-88
2021/04/10 04:35:07;;;;;;;5.63;3.00;;;;;;;;;;5099425;28;20027;-88
2021/04/10 04:37:33;;;;;;;5.30;2.60;;;;;;;;;;5099515;28;20015;-89
2021/04/10 04:39:59;;;;;;;5.57;3.00;;;;;;;;;;5117224;28;20374;-88
2021/04/10 04:42:26;;;;;;;6.47;2.75;;;;;;;;;;5099178;28;20023;-89
2021/04/10 04:44:52;;;;;;;5.93;3.15;;;;;;;;;;5099443;28;20032;-87
2021/04/10 04:47:18;;;;;;;13.73;3.83;;;;;;;;;;5098701;28;20079;-88
2021/04/10 04:49:45;;;;;;;8.15;2.70;;;;;;;;;;5098858;28;20448;-88
2021/04/10 04:52:11;;;;;;;8.02;3.03;;;;;;;;;;5099516;28;20027;-88
2021/04/10 04:54:37;;;;;;;8.25;3.40;;;;;;;;;;5098933;28;20027;-89
2021/04/10 04:57:03;;;;;;;10.75;3.50;;;;;;;;;;5098952;28;20425;-87
2021/04/10 04:59:30;;;;;;;10.32;3.25;;;;;;;;;;5089058;28;20484;-89
2021/04/10 05:01:56;;;;;;;9.60;3.65;;;;;;;;;;5078118;28;20024;-89
2021/04/10 05:04:22;;;;;;;8.30;3.50;;;;;;;;;;5078143;28;20016;-89
2021/04/10 05:06:48;;;;;;;8.68;3.28;;;;;;;;;;5077925;28;20032;-89
2021/04/10 05:09:14;;;;;;;11.63;3.90;;;;;;;;;;5078483;28;20114;-89
2021/04/10 05:11:41;;;;;;;13.65;4.05;;;;;;;;;;5078226;28;20024;-88
2021/04/10 05:14:07;;;;;;;7.85;4.93;;;;;;;;;;5077279;28;20035;-89
2021/04/10 05:16:33;;;;;;;9.50;4.75;;;;;;;;;;5078586;28;20020;-88
2021/04/10 05:19:00;;;;;;;10.32;4.28;;;;;;;;;;5078292;28;20028;-89
2021/04/10 05:21:26;;;;;;;8.85;4.78;;;;;;;;;;5077882;28;20032;-89
2021/04/10 05:23:52;;;;;;;9.43;4.75;;;;;;;;;;5078493;28;20035;-89
2021/04/10 05:26:19;;;;;;;10.10;4.90;;;;;;;;;;5077662;28;20020;-90
2021/04/10 05:28:45;;;;;;;8.85;4.57;;;;;;;;;;5077507;28;20047;-89
2021/04/10 05:31:12;;;;;;;10.18;4.13;;;;;;;;;;5077771;28;20020;-89
2021/04/10 05:33:38;;;;;;;8.82;4.35;;;;;;;;;;5077706;28;20028;-87
2021/04/10 05:36:04;;;;;;;8.70;4.70;;;;;;;;;;5079939;28;20031;-88
2021/04/10 05:38:31;;;;;;;9.82;4.38;;;;;;;;;;5077687;28;20036;-90
2021/04/10 05:40:57;;;;;;;10.52;4.40;;;;;;;;;;5077789;28;20020;-89
2021/04/10 05:43:24;;;;;;;7.30;3.78;;;;;;;;;;5096209;28;20024;-90
2021/04/10 05:45:50;;;;;;;9.73;3.45;;;;;;;;;;5078062;28;20038;-89
2021/04/10 05:48:16;;;;;;;6.95;3.35;;;;;;;;;;5077415;28;20024;-89
2021/04/10 05:50:43;;;;;;;8.68;4.00;;;;;;;;;;5077304;28;20035;-87
2021/04/10 05:53:09;;;;;;;12.10;4.38;;;;;;;;;;5077406;28;20097;-87
2021/04/10 05:55:35;;;;;;;7.72;3.50;;;;;;;;;;5077061;28;20460;-89
2021/04/10 05:58:01;;;;;;;7.80;3.65;;;;;;;;;;5077941;28;20030;-89
2021/04/10 06:00:27;;;;;;;5.88;3.08;;;;;;;;;;5093849;28;20054;-87
2021/04/10 06:02:55;;;;;;;9.35;3.03;;;;;;;;;;5115321;28;20019;-88
2021/04/10 06:05:21;;;;;;;7.78;3.50;;;;;;;;;;5096639;28;20031;-86
2021/04/10 06:07:48;;;;;;;5.43;2.90;;;;;;;;;;5096702;28;20088;-85
2021/04/10 06:10:15;;;;;;;4.90;2.50;;;;;;;;;;5097595;28;20028;-86
2021/04/10 06:12:42;;;;;;;11.18;3.22;;;;;;;;;;5096680;28;20023;-86
2021/04/10 06:15:09;;;;;;;8.90;3.20;;;;;;;;;;5096558;28;20031;-86
2021/04/10 06:17:35;;;;;;;5.60;2.70;;;;;;;;;;5097004;28;20041;-86
2021/04/10 06:20:01;;;;;;;6.65;2.67;;;;;;;;;;5096731;28;20027;-86
2021/04/10 06:22:27;;;;;;;5.50;2.70;;;;;;;;;;5096579;28;20388;-87
2021/04/10 06:24:53;;;;;;;5.25;2.65;;;;;;;;;;5079584;28;20031;-88
2021/04/10 06:27:20;;;;;;;7.43;3.03;;;;;;;;;;5096841;28;20081;-89
2021/04/10 06:29:46;;;;;;;4.53;2.67;;;;;;;;;;5096079;28;20063;-87
2021/04/10 06:32:12;;;;;;;9.07;3.20;;;;;;;;;;5096191;28;20495;-87
2021/04/10 06:34:38;;;;;;;7.57;3.22;;;;;;;;;;5097910;28;20031;-87
2021/04/10 06:37:04;;;;;;;9.15;3.00;;;;;;;;;;5096495;28;20038;-90
2021/04/10 06:39:31;;;;;;;6.53;3.40;;;;;;;;;;5097122;28;20495;-89
2021/04/10 06:41:57;;;;;;;6.32;2.60;;;;;;;;;;5096757;28;20106;-89
2021/04/10 06:44:23;;;;;;;6.85;3.22;;;;;;;;;;5097129;28;20027;-88
2021/04/10 06:46:49;;;;;;;6.20;2.97;;;;;;;;;;5096902;28;20028;-91
2021/04/10 06:49:16;;;;;;;14.70;3.30;;;;;;;;;;5096739;28;20038;-90
2021/04/10 06:51:42;;;;;;;6.30;3.45;;;;;;;;;;5097292;28;20082;-88
2021/04/10 06:54:09;;;;;;;5.53;3.10;;;;;;;;;;5097164;28;20024;-90
2021/04/10 06:56:38;;;;;;;5.90;2.97;;;;;;;;;;5097021;28;20016;-90
2021/04/10 06:59:37;;;;;;;10.63;3.30;;;;;;;;;;5090736;28;20059;-91
2021/04/10 07:02:06;;;;;;;6.72;3.13;;;;;;;;;;5022278;28;20119;-90
2021/04/10 07:04:32;;;;;;;6.53;3.30;;;;;;;;;;5076280;28;20118;-88
2021/04/10 07:06:59;;;;;;;5.60;3.20;;;;;;;;;;5076450;28;20028;-91
2021/04/10 07:09:27;;;;;;;5.00;2.78;;;;;;;;;;5076734;28;20020;-90
2021/04/10 07:11:55;;;;;;;6.38;3.15;;;;;;;;;;5076554;28;20377;-89
2021/04/10 07:14:21;;;;;;;4.70;2.83;;;;;;;;;;5075712;28;20055;-89
2021/04/10 07:16:47;;;;;;;6.68;3.28;;;;;;;;;;5075766;28;20388;-89
2021/04/10 07:19:15;;;;;;;5.78;3.00;;;;;;;;;;5076175;28;20120;-88
2021/04/10 07:21:41;;;;;;;5.03;2.65;;;;;;;;;;5075753;28;20086;-88
2021/04/10 07:24:07;;;;;;;5.32;2.53;;;;;;;;;;5076141;28;20492;-86
2021/04/10 07:26:45;;;;;;;9.90;3.15;;;;;;;;;;5093696;28;20028;-89
2021/04/10 07:29:30;;;;;;;7.40;3.40;;;;;;;;;;5075827;28;20361;-90
2021/04/10 07:31:56;;;;;;;7.10;2.88;;;;;;;;;;5075748;28;20031;-88
2021/04/10 07:34:23;;;;;;;14.90;4.35;;;;;;;;;;5076138;28;20035;-89
2021/04/10 07:36:59;;;;;;;11.13;4.90;;;;;;;;;;5076174;28;20020;-89
2021/04/10 07:39:26;;;;;;;7.30;2.83;;;;;;;;;;5079210;28;20063;-88
2021/04/10 07:42:02;;;;;;;5.70;3.03;;;;;;;;;;5079450;28;20016;-88
2021/04/10 07:44:41;;;;;;;5.43;2.60;;;;;;;;;;5079320;28;20487;-86
2021/04/10 07:47:09;;;;;;;4.95;2.88;;;;;;;;;;5079299;28;20032;-88
2021/04/10 07:49:36;;;;;;;11.23;5.35;;;;;;;;;;5080225;28;20054;-91
2021/04/10 07:52:07;;;;;;;12.32;3.22;;;;;;;;;;5079430;28;20038;-88
2021/04/10 07:54:35;;;;;;;5.70;2.15;;;;;;;;;;5078546;28;20024;-88
2021/04/10 07:57:01;;;;;;;7.80;2.95;;;;;;;;;;5079310;28;20049;-90
2021/04/10 07:59:28;;;;;;;5.15;2.70;;;;;;;;;;5078863;28;20080;-89
2021/04/10 08:01:54;;;;;;;8.27;2.80;;;;;;;;;;5078780;28;20070;-85
2021/04/10 08:04:22;;;;;;;6.72;2.67;;;;;;;;;;5078702;28;20077;-86
2021/04/10 08:06:54;;;;;;;5.45;2.47;;;;;;;;;;5078649;28;20073;-86
2021/04/10 08:09:28;;;;;;;5.47;2.25;;;;;;;;;;5078626;28;20028;-86
2021/04/10 08:11:55;;;;;;;6.95;2.72;;;;;;;;;;5078749;28;20442;-87
2021/04/10 08:14:22;;;;;;;5.57;2.80;;;;;;;;;;5078604;28;20119;-89
2021/04/10 08:16:49;;;;;;;7.07;3.70;;;;;;;;;;5079255;28;20035;-90
2021/04/10 08:19:16;;;;;;;6.60;2.70;;;;;;;;;;5079033;28;20123;-88
2021/04/10 08:21:48;;;;;;;5.75;2.70;;;;;;;;;;5097004;28;20024;-90
2021/04/10 08:24:21;;;;;;;6.33;2.70;;;;;;;;;;5079604;28;20028;-89
2021/04/10 08:26:47;;;;;;;4.88;2.70;;;;;;;;;;5080323;28;20020;-92
2021/04/10 08:29:14;;;;;;;6.15;2.58;;;;;;;;;;5079727;28;20089;-89
2021/04/10 08:31:40;;;;;;;5.60;2.22;;;;;;;;;;5096739;28;20021;-86
2021/04/10 08:34:06;;;;;;;5.70;2.13;;;;;;;;;;5096107;28;20537;-87
2021/04/10 08:36:33;;;;;;;4.60;2.20;;;;;;;;;;5078233;28;20027;-87
2021/04/10 08:38:59;;;;;;;6.55;2.38;;;;;;;;;;5077932;28;20032;-88
2021/04/10 08:41:29;;;;;;;8.45;2.30;;;;;;;;;;5078283;28;20024;-90
2021/04/10 08:43:57;;;;;;;5.18;2.03;;;;;;;;;;5078198;28;20035;-89
2021/04/10 08:46:23;;;;;;;4.03;2.25;;;;;;;;;;5078446;28;20058;-90
2021/04/10 08:48:56;;;;;;;3.97;2.35;;;;;;;;;;5078160;28;20111;-89
2021/04/10 08:51:23;;;;;;;6.72;2.22;;;;;;;;;;5079243;28;20110;-90
2021/04/10 08:53:51;;;;;;;3.67;1.88;;;;;;;;;;5078391;28;20032;-89
2021/04/10 08:56:23;;;;;;;3.78;1.77;;;;;;;;;;5079072;28;20051;-90
2021/04/10 08:58:50;;;;;;;5.55;1.98;;;;;;;;;;5081266;28;20047;-90
2021/04/10 09:01:20;;;;;;;6.85;2.28;;;;;;;;;;5080670;28;20024;-87
2021/04/10 09:03:46;;;;;;;7.80;2.10;;;;;;;;;;5077986;28;20032;-90
2021/04/10 09:06:13;;;;;;;3.80;2.13;;;;;;;;;;5077844;28;20468;-87
2021/04/10 09:08:39;;;;;;;7.20;2.38;;;;;;;;;;5077821;28;20031;-88
2021/04/10 09:11:08;;;;;;;4.65;2.50;;;;;;;;;;5096447;28;20028;-91
2021/04/10 09:13:40;;;;;;;3.50;1.85;;;;;;;;;;5079439;28;20504;-87
2021/04/10 09:16:25;;;;;;;7.45;2.05;;;;;;;;;;5078423;28;20477;-92
2021/04/10 09:18:52;;;;;;;6.00;2.30;;;;;;;;;;5078368;28;20051;-92
2021/04/10 09:21:23;;;;;;;4.03;2.13;;;;;;;;;;5096985;28;20484;-90
2021/04/10 09:23:49;;;;;;;3.83;2.13;;;;;;;;;;5079075;28;20094;-95
2021/04/10 09:26:17;;;;;;;5.65;1.90;;;;;;;;;;5078241;28;20020;-91
2021/04/10 09:28:59;;;;;;;4.82;2.10;;;;;;;;;;5078212;28;20035;-92
2021/04/10 09:31:39;;;;;;;4.45;2.10;;;;;;;;;;5078588;28;20028;-93
2021/04/10 09:34:05;;;;;;;6.47;2.10;;;;;;;;;;5077610;28;20107;-87
2021/04/10 09:36:50;;;;;;;7.80;2.25;;;;;;;;;;5078501;28;20024;-91
2021/04/10 09:39:35;;;;;;;5.68;1.80;;;;;;;;;;5078190;28;20036;-91
2021/04/10 09:42:01;;;;;;;5.30;2.13;;;;;;;;;;5078653;28;20089;-92
2021/04/10 09:44:27;;;;;;;4.82;2.03;;;;;;;;;;5079108;28;20063;-91
2021/04/10 09:46:54;;;;;;;3.83;1.73;;;;;;;;;;5078698;28;20107;-92
2021/04/10 09:49:50;;;;;;;5.20;1.95;;;;;;;;;;5079058;28;20028;-91
2021/04/10 09:52:17;;;;;;;3.63;1.83;;;;;;;;;;5057960;28;20032;-90
2021/04/10 09:54:44;;;;;;;5.07;1.83;;;;;;;;;;5078014;28;20024;-91
2021/04/10 09:57:17;;;;;;;4.78;2.40;;;;;;;;;;5084814;28;20042;-87
2021/04/10 09:59:43;;;;;;;4.43;1.80;;;;;;;;;;5080320;28;20047;-88
2021/04/10 10:02:10;;;;;;;5.03;1.90;;;;;;;;;;5077668;28;20167;-88
2021/04/10 10:04:36;;;;;;;4.68;1.98;;;;;;;;;;5077352;28;20546;-90
2021/04/10 10:07:02;;;;;;;3.97;2.08;;;;;;;;;;5077332;28;20024;-94
2021/04/10 10:09:29;;;;;;;6.47;2.28;;;;;;;;;;5061237;28;20036;-89
2021/04/10 10:11:57;;;;;;;7.18;2.03;;;;;;;;;;5077700;28;20030;-90
2021/04/10 10:14:24;;;;;;;3.85;1.60;;;;;;;;;;5077473;28;20077;-90
2021/04/10 10:16:51;;;;;;;8.57;1.70;;;;;;;;;;5077710;28;20069;-90
2021/04/10 10:19:18;;;;;;;4.95;1.73;;;;;;;;;;5077827;28;20033;-93
2021/04/10 10:21:44;;;;;;;4.93;2.35;;;;;;;;;;5077912;28;20036;-90
2021/04/10 10:24:11;;;;;;;3.35;1.50;;;;;;;;;;5078585;28;20063;-91
2021/04/10 10:26:41;;;;;;;11.40;2.00;;;;;;;;;;5077801;28;20024;-93
2021/04/10 10:29:08;;;;;;;4.55;1.90;;;;;;;;;;5079012;28;20028;-91
2021/04/10 10:31:50;;;;;;;4.95;1.80;;;;;;;;;;5077508;28;20016;-91
2021/04/10 10:34:20;;;;;;;3.47;1.70;;;;;;;;;;5077525;28;20545;-89
2021/04/10 10:36:47;;;;;;;3.15;1.45;;;;;;;;;;5077279;28;20290;-91
2021/04/10 10:39:24;;;;;;;3.60;1.70;;;;;;;;;;5077332;28;20118;-91
2021/04/10 10:41:50;;;;;;;8.75;1.50;;;;;;;;;;5077643;28;20020;-91
2021/04/10 10:44:20;;;;;;;10.55;2.15;;;;;;;;;;5077992;28;20032;-89
2021/04/10 10:46:46;;;;;;;3.28;1.70;;;;;;;;;;5077533;28;20487;-88
2021/04/10 10:49:12;;;;;;;5.60;1.65;;;;;;;;;;5077057;28;20388;-87
2021/04/10 10:51:40;;;;;;;3.13;1.70;;;;;;;;;;5094861;28;20016;-89
2021/04/10 10:54:06;;;;;;;5.97;1.88;;;;;;;;;;5095116;28;20488;-90
2021/04/10 10:56:33;;;;;;;4.95;2.00;;;;;;;;;;5095780;28;20027;-89
2021/04/10 10:59:09;;;;;;;4.05;1.90;;;;;;;;;;5076713;28;20101;-89
2021/04/10 11:01:37;;;;;;;12.68;1.88;;;;;;;;;;5076241;28;20028;-89
2021/04/10 11:04:10;;;;;;;3.33;1.60;;;;;;;;;;5076768;28;20099;-88
2021/04/10 11:06:36;;;;;;;;;;;;;;;;;;5076989;28;20020;-89
2021/04/10 11:09:04;;;;;;;3.97;1.73;;;;;;;;;;5078015;28;19904;-87
2021/04/10 11:11:38;;;;;;;10.70;1.83;;;;;;;;;;5078738;28;20032;-88
2021/04/10 11:14:05;;;;;;;7.03;2.33;;;;;;;;;;5080627;28;20384;-90
2021/04/10 11:16:32;;;;;;;3.88;1.67;;;;;;;;;;5080719;28;20021;-91
2021/04/10 11:18:59;;;;;;;6.88;1.50;;;;;;;;;;5080194;28;20504;-90
2021/04/10 11:21:28;;;;;;;4.65;1.65;;;;;;;;;;5081293;28;20020;-88
2021/04/10 11:24:15;;;;;;;4.70;1.85;;;;;;;;;;5099036;28;20610;-89
2021/04/10 11:26:42;;;;;;;8.30;2.08;;;;;;;;;;5080442;28;20032;-88
2021/04/10 11:29:16;;;;;;;4.03;1.77;;;;;;;;;;5080425;28;20027;-87
2021/04/10 11:31:42;;;;;;;4.15;1.80;;;;;;;;;;5080845;28;20077;-87
2021/04/10 11:34:27;;;;;;;5.30;1.90;;;;;;;;;;5080647;28;20088;-91
2021/04/10 11:36:57;;;;;;;3.92;2.03;;;;;;;;;;5080378;28;20028;-90
2021/04/10 11:39:24;;;;;;;7.45;3.10;;;;;;;;;;5081390;28;20036;-89
2021/04/10 11:41:50;;;;;;;5.80;2.33;;;;;;;;;;5082175;28;20115;-90
2021/04/10 11:44:16;;;;;;;6.80;1.95;;;;;;;;;;5080554;28;20496;-89
2021/04/10 11:46:43;;;;;;;21.27;7.30;;;;;;;;;;5079889;28;20020;-88
2021/04/10 11:49:09;;;;;;;7.30;3.90;;;;;;;;;;5080303;28;20055;-90
2021/04/10 11:51:36;;;;;;;14.65;6.25;;;;;;;;;;5080151;28;20032;-90
2021/04/10 11:54:02;;;;;;;7.20;1.65;;;;;;;;;;5080146;28;20021;-87
2021/04/10 11:56:33;;;;;;;10.85;2.90;;;;;;;;;;5099905;28;20091;-88
2021/04/10 11:59:09;;;;;;;4.32;1.83;;;;;;;;;;5079719;28;20079;-91
2021/04/10 12:01:36;;;;;;;5.80;2.08;;;;;;;;;;5079771;28;20020;-91
2021/04/10 12:04:03;;;;;;;78.13;29.02;;;;;;;;;;5079410;28;20035;-86
2021/04/10 12:06:42;;;;;;;5.18;2.05;;;;;;;;;;5079611;28;20020;-88
2021/04/10 12:09:12;;;;;;;8.90;2.28;;;;;;;;;;5079260;28;20055;-89
2021/04/10 12:11:40;;;;;;;4.25;1.98;;;;;;;;;;5079757;28;20065;-89
2021/04/10 12:14:06;;;;;;;7.10;2.47;;;;;;;;;;5079414;28;20069;-89
2021/04/10 12:16:34;;;;;;;7.47;2.38;;;;;;;;;;5079681;28;20020;-90
2021/04/10 12:19:00;;;;;;;5.50;2.75;;;;;;;;;;5080118;28;20178;-91
2021/04/10 12:21:27;;;;;;;6.40;1.92;;;;;;;;;;5080794;28;20051;-89
2021/04/10 12:23:53;;;;;;;86.03;33.05;;;;;;;;;;5078736;28;20123;-88
2021/04/10 12:26:19;;;;;;;5.38;1.90;;;;;;;;;;5079170;28;20101;-87
2021/04/10 12:28:45;;;;;;;56.88;24.45;;;;;;;;;;5078408;28;20024;-86
2021/04/10 12:31:11;;;;;;;33.35;13.18;;;;;;;;;;5078761;28;20024;-89
2021/04/10 12:33:38;;;;;;;25.77;9.20;;;;;;;;;;5079632;28;20085;-87
2021/04/10 12:36:05;;;;;;;4.25;2.20;;;;;;;;;;5078524;28;20031;-89
2021/04/10 12:38:31;;;;;;;5.53;1.80;;;;;;;;;;5078847;28;20076;-89
2021/04/10 12:40:58;;;;;;;7.43;2.15;;;;;;;;;;5078934;28;20031;-89
2021/04/10 12:43:24;;;;;;;9.70;2.35;;;;;;;;;;5078886;28;20073;-87
2021/04/10 12:45:50;;;;;;;7.95;2.15;;;;;;;;;;5096638;28;20103;-88
2021/04/10 12:48:16;;;;;;;5.05;2.00;;;;;;;;;;5078615;28;20035;-90
2021/04/10 12:50:42;;;;;;;4.53;1.50;;;;;;;;;;5079869;28;20024;-94
2021/04/10 12:53:09;;;;;;;10.55;2.58;;;;;;;;;;5079749;28;20472;-92
2021/04/10 12:55:35;;;;;;;6.95;3.28;;;;;;;;;;5079488;28;20530;-91
2021/04/10 12:58:01;;;;;;;7.57;2.70;;;;;;;;;;5079171;28;20058;-92
2021/04/10 13:00:27;;;;;;;7.32;2.50;;;;;;;;;;5079402;28;20051;-91
2021/04/10 13:02:53;;;;;;;6.88;2.10;;;;;;;;;;5079322;28;20024;-92
2021/04/10 13:05:21;;;;;;;4.88;2.50;;;;;;;;;;5097645;28;20469;-91
2021/04/10 13:07:48;;;;;;;7.30;2.97;;;;;;;;;;5078336;28;20024;-93
2021/04/10 13:10:15;;;;;;;7.05;2.58;;;;;;;;;;5082460;28;20063;-90
2021/04/10 13:12:42;;;;;;;24.67;9.00;;;;;;;;;;5087061;28;20028;-90
2021/04/10 13:15:09;;;;;;;52.90;17.00;;;;;;;;;;5083279;28;20034;-90
2021/04/10 13:17:36;;;;;;;7.95;2.00;;;;;;;;;;5079506;28;20035;-90
2021/04/10 13:20:04;;;;;;;14.23;6.50;;;;;;;;;;5079077;28;20104;-90
2021/04/10 13:22:30;;;;;;;13.98;5.97;;;;;;;;;;5079969;28;20035;-91
2021/04/10 13:24:56;;;;;;;8.75;2.22;;;;;;;;;;5081371;28;20020;-91
2021/04/10 13:27:22;;;;;;;4.40;2.05;;;;;;;;;;5079312;28;20016;-90
2021/04/10 13:29:48;;;;;;;16.65;9.25;;;;;;;;;;5079547;28;20526;-90
2021/04/10 13:32:14;;;;;;;10.85;2.08;;;;;;;;;;5078724;28;20118;-94
2021/04/10 13:34:40;;;;;;;9.07;2.80;;;;;;;;;;5078317;28;20016;-89
2021/04/10 13:37:07;;;;;;;6.10;1.73;;;;;;;;;;5078841;28;20058;-93
2021/04/10 13:39:33;;;;;;;6.10;1.80;;;;;;;;;;5079506;28;20103;-95
2021/04/10 13:41:59;;;;;;;4.47;2.00;;;;;;;;;;5079771;28;20476;-92
2021/04/10 13:44:25;;;;;;;4.80;1.75;;;;;;;;;;5078693;28;20062;-91
2021/04/10 13:46:57;;;;;;;4.10;1.77;;;;;;;;;;5079425;28;20096;-89
2021/04/10 13:49:24;;;;;;;3.90;2.00;;;;;;;;;;5078381;28;20027;-93
2021/04/10 13:51:50;;;;;;;9.30;2.20;;;;;;;;;;5077948;28;20173;-91
2021/04/10 13:54:18;;;;;;;4.57;2.28;;;;;;;;;;5079947;28;20496;-91
2021/04/10 13:56:44;;;;;;;4.90;2.28;;;;;;;;;;5080326;28;20384;-92
2021/04/10 13:59:11;;;;;;;4.30;1.90;;;;;;;;;;5062785;28;20048;-93
2021/04/10 14:01:37;;;;;;;4.38;2.03;;;;;;;;;;5079515;28;20078;-93
2021/04/10 14:04:03;;;;;;;9.50;2.08;;;;;;;;;;5079175;28;20020;-91
2021/04/10 14:06:30;;;;;;;5.10;1.77;;;;;;;;;;5079421;28;20119;-91
2021/04/10 14:08:58;;;;;;;5.22;2.08;;;;;;;;;;5078233;28;20035;-93
2021/04/10 14:11:25;;;;;;;5.07;2.50;;;;;;;;;;5064465;28;20118;-92
2021/04/10 14:13:51;;;;;;;10.10;2.38;;;;;;;;;;5080638;28;20109;-94
2021/04/10 14:16:22;;;;;;;5.28;2.20;;;;;;;;;;5081941;28;20388;-94
2021/04/10 14:18:49;;;;;;;5.93;2.30;;;;;;;;;;5078370;28;20035;-92
2021/04/10 14:21:16;;;;;;;4.60;1.83;;;;;;;;;;5081411;28;20497;-95
2021/04/10 14:23:44;;;;;;;4.68;1.95;;;;;;;;;;5079371;28;20031;-92
2021/04/10 14:26:14;;;;;;;8.30;2.38;;;;;;;;;;5077750;28;20103;-92
2021/04/10 14:28:42;;;;;;;5.78;1.75;;;;;;;;;;5096584;28;20085;-92
2021/04/10 14:31:09;;;;;;;5.50;2.15;;;;;;;;;;5077516;28;20122;-93
2021/04/10 14:33:35;;;;;;;6.63;1.67;;;;;;;;;;5077663;28;20028;-91
2021/04/10 14:36:02;;;;;;;6.07;1.98;;;;;;;;;;5077241;28;20461;-91
2021/04/10 14:38:28;;;;;;;4.13;1.65;;;;;;;;;;5077489;28;20035;-90
2021/04/10 14:40:54;;;;;;;4.10;1.90;;;;;;;;;;5077274;28;20024;-92
2021/04/10 14:43:21;;;;;;;8.85;1.83;;;;;;;;;;5077951;28;20028;-92
2021/04/10 14:45:48;;;;;;;5.55;2.22;;;;;;;;;;5077337;28;20116;-90